Time;durP1;ratioP1;P1;durP2;ratioP2;P2;SDS_P1;SDS_P2;PMS_P1;PMS_P2;Temp;Humidity;BMP_temperature;BMP_pressure;BME280_temperature;BME280_humidity;BME280_pressure;Samples;Min_cycle;Max_cycle;Signal;HPM_P1;HPM_P2
2022/01/08 00:00:27;;;;;;;2.53;1.67;;;;;;;19.73;48.43;96419.03;12612242;23;20014;-51
2022/01/08 00:05:48;;;;;;;3.40;2.15;;;;;;;19.72;48.39;96428.28;12612126;23;20481;-50
2022/01/08 00:11:09;;;;;;;2.90;1.65;;;;;;;19.71;48.17;96429.34;12612044;23;20018;-52
2022/01/08 00:16:33;;;;;;;2.67;1.80;;;;;;;19.70;48.19;96431.28;12631089;23;20668;-51
2022/01/08 00:21:52;;;;;;;3.13;1.73;;;;;;;19.69;48.10;96426.19;12631006;23;20022;-51
2022/01/08 00:27:11;;;;;;;3.00;2.03;;;;;;;19.69;47.92;96428.91;12611647;23;20448;-51
2022/01/08 00:32:30;;;;;;;2.33;1.65;;;;;;;19.67;47.99;96423.81;12611208;23;20019;-50
2022/01/08 00:37:51;;;;;;;3.47;1.70;;;;;;;19.67;48.08;96431.16;12611103;23;20018;-52
2022/01/08 00:43:10;;;;;;;3.05;1.75;;;;;;;19.65;47.97;96417.97;12630334;23;20023;-50
2022/01/08 00:48:29;;;;;;;2.72;1.73;;;;;;;19.64;48.12;96426.41;12611142;23;20072;-53
2022/01/08 00:53:48;;;;;;;2.22;1.60;;;;;;;19.65;47.79;96411.78;12610995;23;20022;-51
2022/01/08 00:59:08;;;;;;;2.50;1.60;;;;;;;19.62;48.00;96404.31;12610316;23;20078;-53
2022/01/08 01:04:27;;;;;;;3.78;1.55;;;;;;;19.62;47.84;96407.03;12610845;23;20475;-50
2022/01/08 01:09:46;;;;;;;2.60;1.70;;;;;;;19.60;47.99;96388.47;12610916;23;20018;-53
2022/01/08 01:15:08;;;;;;;2.50;1.70;;;;;;;19.59;47.83;96380.69;12610702;23;20018;-53
2022/01/08 01:20:28;;;;;;;1.38;1.27;;;;;;;19.57;47.80;96378.31;12610451;23;20015;-52
2022/01/08 01:25:52;;;;;;;1.98;1.23;;;;;;;19.56;47.62;96366.72;12609760;23;20038;-50
2022/01/08 01:48:16;;;;;;;1.58;1.20;;;;;;;19.50;47.49;96340.25;12484046;23;20607;-51
2022/01/08 01:53:36;;;;;;;1.92;1.40;;;;;;;19.48;47.50;96340.59;12616105;23;20029;-50
2022/01/08 01:58:55;;;;;;;2.05;1.63;;;;;;;19.46;47.36;96345.50;12629386;23;20018;-50
2022/01/08 02:04:15;;;;;;;3.00;1.50;;;;;;;19.45;47.27;96352.06;12609697;23;20398;-51
2022/01/08 02:09:37;;;;;;;1.45;1.30;;;;;;;19.44;47.32;96341.59;12629197;23;20455;-50
2022/01/08 02:14:57;;;;;;;2.88;1.50;;;;;;;19.42;47.37;96349.22;12619911;23;20044;-53
2022/01/08 02:20:16;;;;;;;2.05;1.30;;;;;;;19.41;47.44;96355.78;12608410;23;20032;-51
2022/01/08 02:25:35;;;;;;;2.35;1.30;;;;;;;19.40;47.40;96356.88;12609661;23;20097;-50
2022/01/08 02:30:55;;;;;;;1.92;1.20;;;;;;;19.39;47.13;96350.69;12628859;23;20494;-53
2022/01/08 02:36:15;;;;;;;1.58;1.30;;;;;;;19.37;47.22;96350.25;12628751;23;20018;-50
2022/01/08 02:41:35;;;;;;;1.92;1.42;;;;;;;19.34;47.10;96343.56;12609805;23;20045;-50
2022/01/08 02:46:55;;;;;;;1.92;1.30;;;;;;;19.34;46.89;96337.41;12628615;23;20021;-50
2022/01/08 02:52:15;;;;;;;1.70;1.23;;;;;;;19.32;47.08;96345.81;12609280;23;20069;-50
2022/01/08 02:57:35;;;;;;;1.95;1.40;;;;;;;19.32;47.08;96342.34;12609346;23;20073;-54
2022/01/08 03:02:54;;;;;;;1.77;1.15;;;;;;;19.31;47.04;96343.47;12608471;23;20050;-51
2022/01/08 03:08:14;;;;;;;1.77;1.33;;;;;;;19.28;47.02;96339.50;12611829;23;20022;-50
2022/01/08 03:13:34;;;;;;;1.98;1.33;;;;;;;19.28;47.06;96331.41;12632519;23;20022;-51
2022/01/08 03:18:53;;;;;;;1.95;1.10;;;;;;;19.25;46.85;96315.88;12632154;23;20077;-51
2022/01/08 03:24:16;;;;;;;1.88;1.30;;;;;;;19.24;46.80;96310.81;12612858;23;20025;-50
2022/01/08 03:29:35;;;;;;;1.35;1.13;;;;;;;19.23;46.82;96310.03;12612750;23;20029;-50
2022/01/08 03:34:55;;;;;;;1.60;1.20;;;;;;;19.21;46.73;96311.47;12612686;23;20022;-50
2022/01/08 03:40:14;;;;;;;1.60;1.13;;;;;;;19.20;46.90;96304.50;12612803;23;20457;-50
2022/01/08 03:45:34;;;;;;;2.00;1.27;;;;;;;19.17;46.74;96306.75;12612094;23;20019;-50
2022/01/08 03:50:53;;;;;;;1.65;1.17;;;;;;;19.17;46.84;96301.34;12631835;23;20019;-52
2022/01/08 03:56:13;;;;;;;1.25;1.10;;;;;;;19.14;46.81;96295.81;12611414;23;20022;-52
2022/01/08 04:01:32;;;;;;;1.20;1.10;;;;;;;19.13;46.67;96291.53;12611978;23;20022;-52
2022/01/08 04:06:51;;;;;;;1.15;1.05;;;;;;;19.11;46.73;96281.09;12611153;23;20023;-51
2022/01/08 04:12:16;;;;;;;1.40;1.13;;;;;;;19.09;46.81;96285.22;12611292;23;20025;-51
2022/01/08 04:17:35;;;;;;;1.58;0.93;;;;;;;19.08;46.59;96280.97;12610167;23;20635;-50
2022/01/08 04:22:55;;;;;;;1.48;1.15;;;;;;;19.06;46.63;96278.59;12611608;23;20073;-50
2022/01/08 04:28:15;;;;;;;1.20;1.10;;;;;;;19.07;46.65;96279.38;12610664;23;20030;-51
2022/01/08 04:33:34;;;;;;;1.42;1.02;;;;;;;19.05;46.65;96276.22;12630827;23;20023;-52
2022/01/08 04:38:54;;;;;;;1.52;1.30;;;;;;;19.03;46.77;96275.75;12611354;23;20018;-53
2022/01/08 04:44:13;;;;;;;1.30;1.20;;;;;;;19.01;46.76;96270.69;12630588;23;20695;-53
2022/01/08 04:49:33;;;;;;;1.20;1.10;;;;;;;19.00;46.66;96263.72;12610158;23;20105;-50
2022/01/08 04:54:52;;;;;;;1.38;1.27;;;;;;;18.98;46.70;96260.56;12610759;23;20079;-52
2022/01/08 05:00:11;;;;;;;1.10;1.00;;;;;;;18.98;46.67;96254.41;12610880;23;20390;-51
2022/01/08 05:05:31;;;;;;;1.27;1.02;;;;;;;18.95;46.68;96245.84;12630287;23;20018;-52
2022/01/08 05:10:50;;;;;;;0.88;0.85;;;;;;;18.94;46.60;96243.47;12610368;23;20014;-53
2022/01/08 05:16:10;;;;;;;1.35;1.00;;;;;;;18.93;46.59;96247.28;12610359;23;20030;-50
2022/01/08 05:21:33;;;;;;;1.58;0.95;;;;;;;18.92;46.48;96243.00;12629950;23;20546;-50
2022/01/08 05:26:52;;;;;;;1.30;1.00;;;;;;;18.90;46.60;96237.94;12610522;23;20018;-52
2022/01/08 05:32:18;;;;;;;0.80;0.80;;;;;;;18.89;46.63;96240.97;12610042;23;20439;-50
2022/01/08 05:37:38;;;;;;;1.00;0.95;;;;;;;18.88;46.45;96239.41;12610112;23;20019;-52
2022/01/08 05:42:57;;;;;;;1.20;1.00;;;;;;;18.85;46.51;96248.94;12610360;23;20347;-53
2022/01/08 05:48:17;;;;;;;0.82;0.82;;;;;;;18.85;46.49;96248.16;12609269;23;20019;-50
2022/01/08 05:53:37;;;;;;;0.95;0.82;;;;;;;18.84;46.42;96244.69;12609753;23;20042;-51
2022/01/08 05:58:56;;;;;;;1.17;1.00;;;;;;;18.83;46.22;96245.00;12629446;23;20030;-50
2022/01/08 06:04:15;;;;;;;0.80;0.80;;;;;;;18.85;46.34;96267.03;12609823;23;20025;-51
2022/01/08 06:09:35;;;;;;;1.15;0.90;;;;;;;18.86;46.19;96264.03;12608501;23;20238;-50
2022/01/08 06:14:54;;;;;;;1.20;0.82;;;;;;;18.88;46.43;96252.91;12609350;23;20505;-51
2022/01/08 06:20:14;;;;;;;0.93;0.90;;;;;;;18.89;46.27;96251.75;12608753;23;20409;-51
2022/01/08 06:25:34;;;;;;;1.23;1.13;;;;;;;18.89;46.35;96247.16;12609397;23;20026;-51
2022/01/08 06:30:54;;;;;;;1.15;1.00;;;;;;;18.90;46.39;96258.75;12609325;23;20018;-50
2022/01/08 06:36:14;;;;;;;1.10;1.00;;;;;;;18.91;46.13;96254.91;12609470;23;20022;-51
2022/01/08 06:41:34;;;;;;;1.17;1.08;;;;;;;18.92;46.18;96256.50;12610658;23;20061;-50
2022/01/08 06:46:53;;;;;;;1.30;1.00;;;;;;;18.92;46.27;96260.00;12613834;23;20521;-50
2022/01/08 06:52:13;;;;;;;1.05;0.95;;;;;;;18.92;46.18;96262.69;12613376;23;20593;-55
2022/01/08 06:57:33;;;;;;;0.93;0.85;;;;;;;18.94;46.28;96262.38;12613467;23;20019;-51
2022/01/08 07:02:53;;;;;;;1.13;1.00;;;;;;;18.96;46.28;96260.13;12632832;23;20137;-51
2022/01/08 07:08:14;;;;;;;0.98;0.90;;;;;;;18.98;46.35;96251.69;12613025;23;20022;-50
2022/01/08 07:13:33;;;;;;;0.90;0.90;;;;;;;19.01;46.48;96256.41;12590221;23;20014;-50
2022/01/08 07:18:53;;;;;;;1.35;1.00;;;;;;;19.02;46.18;96264.19;12611763;23;20029;-50
2022/01/08 07:24:12;;;;;;;0.90;0.88;;;;;;;19.04;46.29;96255.75;12612285;23;20346;-51
2022/01/08 07:29:32;;;;;;;1.02;0.90;;;;;;;19.07;46.35;96252.38;12612418;23;20030;-50
2022/01/08 07:34:51;;;;;;;1.35;0.98;;;;;;;19.09;46.24;96258.22;12612047;23;20018;-52
2022/01/08 07:40:12;;;;;;;1.02;0.80;;;;;;;19.14;46.21;96252.63;12631410;23;20022;-53
2022/01/08 07:45:31;;;;;;;0.95;0.85;;;;;;;19.19;46.21;96251.59;12611408;23;20343;-50
2022/01/08 07:50:51;;;;;;;0.95;0.90;;;;;;;19.22;46.09;96242.84;12611014;23;20469;-50
2022/01/08 07:56:11;;;;;;;0.85;0.80;;;;;;;19.25;45.95;96259.19;12630940;23;20053;-52
2022/01/08 08:01:30;;;;;;;0.80;0.80;;;;;;;19.29;46.04;96256.59;12631184;23;20085;-50
2022/01/08 08:06:49;;;;;;;1.08;0.95;;;;;;;19.33;45.91;96262.91;12611140;23;20077;-52
2022/01/08 08:12:09;;;;;;;0.90;0.90;;;;;;;19.36;45.77;96256.81;12609902;23;20023;-52
2022/01/08 08:17:28;;;;;;;0.80;0.70;;;;;;;19.42;45.84;96254.69;12609607;23;20049;-50
2022/01/08 08:22:48;;;;;;;1.00;0.82;;;;;;;19.45;45.87;96245.94;12608682;23;20014;-53
2022/01/08 08:28:07;;;;;;;0.70;0.70;;;;;;;19.51;45.56;96244.56;12605834;23;20022;-50
2022/01/08 08:33:26;;;;;;;0.93;0.90;;;;;;;19.56;45.69;96247.03;12606601;23;20014;-51
2022/01/08 08:38:46;;;;;;;0.77;0.77;;;;;;;19.61;45.76;96246.81;12607877;23;20022;-50
2022/01/08 08:44:05;;;;;;;0.90;0.90;;;;;;;19.66;45.92;96251.19;12630662;23;20022;-50
2022/01/08 08:49:26;;;;;;;0.80;0.80;;;;;;;19.71;45.83;96251.81;12610412;23;20023;-50
2022/01/08 08:54:45;;;;;;;2.30;1.40;;;;;;;19.77;45.77;96252.38;12610618;23;20014;-49
2022/01/08 09:00:05;;;;;;;2.67;1.00;;;;;;;19.81;45.82;96250.56;12604523;23;20019;-50
2022/01/08 09:05:25;;;;;;;3.75;0.98;;;;;;;19.87;45.98;96245.72;12609319;23;20029;-54
2022/01/08 09:10:45;;;;;;;1.95;0.93;;;;;;;19.92;45.75;96243.56;12607812;23;20033;-52
2022/01/08 09:16:04;;;;;;;1.30;1.00;;;;;;;19.99;45.05;96248.41;12610001;23;20022;-54
2022/01/08 09:21:24;;;;;;;3.97;1.55;;;;;;;20.03;44.99;96235.81;12610525;23;20343;-52
2022/01/08 09:26:43;;;;;;;1.35;1.25;;;;;;;20.08;44.73;96232.84;12629719;23;20069;-54
2022/01/08 09:32:07;;;;;;;2.05;1.10;;;;;;;20.12;43.64;96231.03;12609946;23;20018;-52
2022/01/08 09:37:26;;;;;;;4.68;2.63;;;;;;;20.00;34.44;96227.56;12609056;23;20022;-50
2022/01/08 09:42:46;;;;;;;4.07;3.65;;;;;;;19.17;27.79;96214.16;12629517;23;20332;-53
2022/01/08 09:48:06;;;;;;;3.10;2.60;;;;;;;19.03;32.59;96202.88;12628162;23;20029;-51
2022/01/08 09:53:26;;;;;;;1.92;1.73;;;;;;;19.40;35.77;96201.00;12608673;23;20018;-53
2022/01/08 09:58:45;;;;;;;5.53;3.08;;;;;;;19.46;28.70;96196.16;12607719;23;20089;-53
2022/01/08 10:04:05;;;;;;;1.80;1.70;;;;;;;19.58;34.39;96188.03;12602704;23;20034;-52
2022/01/08 10:09:25;;;;;;;3.20;1.70;;;;;;;19.70;34.93;96190.75;12581730;23;20074;-53
2022/01/08 10:17:13;;;;;;;3.25;1.77;;;;;;;19.80;35.51;96191.44;12605473;23;20025;-53
2022/01/08 10:20:36;;;;;;;1.77;1.60;;;;;;;19.89;35.92;96184.00;12624058;23;20025;-53
2022/01/08 10:26:08;;;;;;;1.92;1.70;;;;;;;19.94;35.54;96170.25;12602824;23;20022;-52
2022/01/08 10:31:29;;;;;;;2.30;1.30;;;;;;;20.00;36.44;96163.47;12623682;23;20018;-51
2022/01/08 10:37:01;;;;;;;2.13;1.45;;;;;;;20.04;36.88;96160.88;12605475;23;20093;-50
2022/01/08 10:42:21;;;;;;;3.80;1.60;;;;;;;20.06;37.28;96153.22;12609138;23;20022;-51
2022/01/08 10:47:42;;;;;;;1.85;1.40;;;;;;;20.10;37.61;96151.38;12605127;23;20025;-51
2022/01/08 10:53:02;;;;;;;2.08;1.30;;;;;;;20.12;37.87;96149.13;12584121;23;20619;-50
2022/01/08 10:58:41;;;;;;;1.48;1.30;;;;;;;20.18;38.26;96145.03;12605015;23;20024;-50
2022/01/08 11:04:00;;;;;;;2.15;1.17;;;;;;;20.21;38.38;96144.38;12625947;23;20109;-50
2022/01/08 11:09:21;;;;;;;1.70;1.60;;;;;;;20.24;38.59;96146.38;12605666;23;20018;-51
2022/01/08 11:14:59;;;;;;;2.83;1.30;;;;;;;20.27;38.97;96134.09;12625488;23;20021;-53
2022/01/08 11:20:21;;;;;;;1.85;1.70;;;;;;;20.30;37.40;96136.88;12606533;23;20022;-51
2022/01/08 11:25:41;;;;;;;1.40;1.10;;;;;;;20.31;38.07;96133.06;12606051;23;20089;-54
2022/01/08 11:31:02;;;;;;;1.83;1.48;;;;;;;20.35;38.16;96119.63;12606050;23;20057;-50
2022/01/08 11:36:23;;;;;;;2.60;1.30;;;;;;;20.37;38.38;96116.59;12632011;23;20014;-51
2022/01/08 11:41:42;;;;;;;1.40;1.30;;;;;;;20.42;38.41;96119.03;12612439;23;20112;-53
2022/01/08 11:47:02;;;;;;;1.33;1.23;;;;;;;20.44;38.63;96117.53;12590165;23;20465;-51
2022/01/08 11:52:23;;;;;;;2.10;1.40;;;;;;;20.49;38.64;96103.00;12610007;23;20018;-51
2022/01/08 11:57:42;;;;;;;1.52;1.42;;;;;;;20.50;38.78;96105.34;12612072;23;20025;-51
2022/01/08 12:03:19;;;;;;;1.75;1.30;;;;;;;20.54;38.82;96105.41;12609001;23;20014;-54
2022/01/08 12:09:10;;;;;;;2.45;1.25;;;;;;;20.56;39.02;96095.03;12611065;23;20075;-50
2022/01/08 12:14:36;;;;;;;1.40;1.30;;;;;;;20.58;39.14;96092.78;12611469;23;20650;-51
2022/01/08 12:19:57;;;;;;;1.75;1.63;;;;;;;20.61;39.18;96085.91;12610376;23;20443;-51
2022/01/08 12:25:40;;;;;;;1.80;1.60;;;;;;;20.61;39.26;96067.75;12611226;23;20351;-50
2022/01/08 12:31:29;;;;;;;1.65;1.55;;;;;;;20.64;39.32;96071.69;12610075;23;20018;-52
2022/01/08 12:36:54;;;;;;;1.70;1.60;;;;;;;20.63;39.37;96068.19;12630601;23;20018;-51
2022/01/08 12:42:19;;;;;;;2.05;1.75;;;;;;;20.63;39.52;96059.28;12610453;23;20018;-53
2022/01/08 12:48:03;;;;;;;1.98;1.77;;;;;;;20.64;39.41;96055.44;12610816;23;20018;-51
2022/01/08 12:53:30;;;;;;;2.00;1.75;;;;;;;20.65;39.54;96055.09;12609791;23;20028;-51
2022/01/08 12:58:51;;;;;;;1.90;1.60;;;;;;;20.64;39.57;96050.84;12610511;23;20018;-51
2022/01/08 13:04:16;;;;;;;2.00;1.70;;;;;;;20.65;39.75;96051.63;12630581;23;20490;-51
2022/01/08 13:09:36;;;;;;;2.35;1.30;;;;;;;20.65;39.70;96041.56;12609968;23;20081;-53
2022/01/08 13:15:02;;;;;;;1.48;1.33;;;;;;;20.64;39.76;96031.88;12610124;23;20343;-52
2022/01/08 13:20:22;;;;;;;1.83;1.45;;;;;;;20.64;39.81;96029.19;12690177;23;20021;-51
2022/01/08 13:25:51;;;;;;;1.35;1.25;;;;;;;20.63;39.89;96033.00;12670645;23;20017;-52
2022/01/08 13:31:11;;;;;;;1.50;1.30;;;;;;;20.63;39.91;96024.91;12690403;23;20045;-50
2022/01/08 13:36:31;;;;;;;1.33;1.20;;;;;;;20.62;39.94;96034.16;12670452;23;20068;-50
2022/01/08 13:41:51;;;;;;;1.55;1.30;;;;;;;20.62;39.93;96028.75;12690351;23;20036;-50
2022/01/08 13:47:41;;;;;;;1.70;1.60;;;;;;;20.61;39.88;96029.09;12690157;23;20024;-54
2022/01/08 13:53:07;;;;;;;1.73;1.42;;;;;;;20.61;39.99;96034.50;12659550;23;20024;-51
2022/01/08 13:58:28;;;;;;;1.60;1.50;;;;;;;20.60;39.98;96033.72;12670223;23;20354;-51
2022/01/08 14:03:49;;;;;;;1.67;1.30;;;;;;;20.59;40.00;96037.56;12668435;23;20014;-53
2022/01/08 14:09:11;;;;;;;1.30;1.20;;;;;;;20.57;40.06;96028.97;12688512;23;20019;-53
2022/01/08 14:14:39;;;;;;;1.52;1.30;;;;;;;20.57;40.02;96025.50;12668077;23;20385;-51
2022/01/08 14:20:00;;;;;;;1.25;1.15;;;;;;;20.56;40.07;96032.78;12612230;23;20101;-51
2022/01/08 14:25:20;;;;;;;2.65;1.50;;;;;;;20.55;40.20;96028.53;12608576;23;20018;-53
2022/01/08 14:30:39;;;;;;;1.40;1.30;;;;;;;20.54;40.19;96030.47;12586567;23;20025;-51
2022/01/08 14:35:59;;;;;;;1.48;1.20;;;;;;;20.53;40.23;96028.88;12608001;23;20078;-53
2022/01/08 14:41:35;;;;;;;1.48;1.30;;;;;;;20.52;40.27;96030.03;12608369;23;20021;-51
2022/01/08 14:46:56;;;;;;;1.40;1.27;;;;;;;20.50;40.36;96028.78;12608738;23;20019;-50
2022/01/08 14:52:20;;;;;;;1.40;1.30;;;;;;;20.49;40.41;96032.63;12608439;23;20026;-52
2022/01/08 14:57:40;;;;;;;1.23;1.10;;;;;;;20.48;40.35;96036.47;12607803;23;20085;-50
2022/01/08 15:03:01;;;;;;;1.25;1.15;;;;;;;20.47;40.48;96037.63;12628529;23;20028;-51
2022/01/08 15:08:21;;;;;;;1.20;1.10;;;;;;;20.44;40.38;96030.97;12611749;23;20018;-50
2022/01/08 15:13:41;;;;;;;1.20;1.10;;;;;;;20.43;40.48;96028.63;12611992;23;20391;-51
2022/01/08 15:19:00;;;;;;;1.42;1.30;;;;;;;20.41;40.55;96036.31;12611374;23;20026;-51
2022/01/08 15:24:20;;;;;;;1.55;1.40;;;;;;;20.40;40.48;96032.00;12611345;23;20019;-51
2022/01/08 15:29:39;;;;;;;1.50;1.40;;;;;;;20.39;40.56;96038.56;12630889;23;20025;-52
2022/01/08 15:35:00;;;;;;;1.17;1.08;;;;;;;20.38;40.65;96047.81;12611664;23;20018;-52
2022/01/08 15:40:19;;;;;;;1.40;1.30;;;;;;;20.35;40.66;96044.66;12610827;23;20019;-50
2022/01/08 15:45:39;;;;;;;1.40;1.30;;;;;;;20.34;40.70;96042.31;12611078;23;20018;-53
2022/01/08 15:50:59;;;;;;;1.08;0.98;;;;;;;20.33;40.89;96051.56;12611213;23;20041;-50
2022/01/08 15:56:18;;;;;;;2.60;1.40;;;;;;;20.31;40.78;96049.19;12611085;23;20019;-51
2022/01/08 16:01:38;;;;;;;1.20;1.10;;;;;;;20.30;41.02;96053.03;12611099;23;20533;-50
2022/01/08 16:06:58;;;;;;;1.35;1.20;;;;;;;20.28;40.87;96051.81;12630471;23;20454;-52
2022/01/08 16:12:19;;;;;;;1.30;1.20;;;;;;;20.26;40.95;96046.75;12610790;23;20070;-52
2022/01/08 16:17:38;;;;;;;1.30;1.20;;;;;;;20.26;41.01;96062.97;12610325;23;20061;-52
2022/01/08 16:22:58;;;;;;;1.10;1.00;;;;;;;20.23;41.10;96062.88;12609729;23;20025;-53
2022/01/08 16:28:18;;;;;;;1.30;1.20;;;;;;;20.22;41.12;96064.78;12610100;23;20025;-50
2022/01/08 16:33:38;;;;;;;0.98;0.93;;;;;;;20.20;41.19;96066.28;12609597;23;20021;-51
2022/01/08 16:38:59;;;;;;;1.77;1.05;;;;;;;20.19;41.28;96070.91;12609435;23;20023;-51
2022/01/08 16:44:18;;;;;;;1.08;1.00;;;;;;;20.15;41.23;96067.31;12609585;23;20394;-50
2022/01/08 16:49:38;;;;;;;1.13;1.02;;;;;;;20.15;41.45;96073.50;12609012;23;20097;-51
2022/01/08 16:54:57;;;;;;;1.10;1.10;;;;;;;20.12;41.30;96066.09;12609734;23;20021;-51
2022/01/08 17:00:17;;;;;;;1.20;1.10;;;;;;;20.11;41.45;96063.72;12628975;23;20500;-53
2022/01/08 17:05:39;;;;;;;0.85;0.80;;;;;;;20.09;41.48;96063.28;12608613;23;20030;-53
2022/01/08 17:10:59;;;;;;;0.93;0.90;;;;;;;20.07;41.56;96055.53;12608506;23;20022;-50
2022/01/08 17:16:19;;;;;;;1.10;1.05;;;;;;;20.06;41.67;96066.69;12628938;23;20034;-50
2022/01/08 17:21:39;;;;;;;1.00;0.90;;;;;;;20.05;41.71;96079.44;12628734;23;20025;-51
2022/01/08 17:26:59;;;;;;;0.82;0.80;;;;;;;20.03;41.64;96070.06;12609085;23;20093;-51
2022/01/08 17:32:19;;;;;;;1.75;1.00;;;;;;;20.02;41.77;96071.22;12607754;23;20018;-52
2022/01/08 17:37:38;;;;;;;1.02;0.85;;;;;;;19.99;41.72;96058.38;12628320;23;20025;-52
2022/01/08 17:42:58;;;;;;;1.08;1.00;;;;;;;19.98;41.72;96067.63;12608523;23;20021;-52
2022/01/08 17:48:18;;;;;;;1.13;1.00;;;;;;;19.94;41.87;96068.31;12628428;23;20021;-51
2022/01/08 17:53:38;;;;;;;1.38;1.20;;;;;;;19.93;41.77;96052.41;12608644;23;20439;-54
2022/01/08 17:58:58;;;;;;;0.90;0.90;;;;;;;19.93;42.03;96053.22;12608738;23;20019;-51
2022/01/08 18:04:18;;;;;;;0.90;0.90;;;;;;;19.91;41.86;96052.75;12608858;23;20021;-51
2022/01/08 18:09:39;;;;;;;1.73;0.85;;;;;;;19.89;41.90;96059.66;12627872;23;20018;-51
2022/01/08 18:14:59;;;;;;;0.80;0.80;;;;;;;19.88;41.88;96060.78;12586993;23;20014;-53
2022/01/08 18:20:21;;;;;;;1.05;0.90;;;;;;;19.85;42.04;96043.31;12607542;23;20081;-52
2022/01/08 18:25:41;;;;;;;1.10;1.00;;;;;;;19.84;42.10;96049.09;12608269;23;20025;-53
2022/01/08 18:31:01;;;;;;;1.08;0.98;;;;;;;19.84;42.05;96049.09;12607176;23;20019;-51
2022/01/08 18:36:20;;;;;;;1.20;0.90;;;;;;;19.82;42.10;96054.06;12607375;23;20018;-52
2022/01/08 18:41:41;;;;;;;0.80;0.80;;;;;;;19.80;42.14;96050.88;12625447;23;20050;-51
2022/01/08 18:47:00;;;;;;;0.93;0.90;;;;;;;19.78;42.14;96053.16;12607589;23;20401;-51
2022/01/08 18:52:20;;;;;;;1.10;1.00;;;;;;;19.76;42.04;96045.41;12607521;23;20334;-50
2022/01/08 18:57:39;;;;;;;1.00;0.90;;;;;;;19.75;42.26;96033.00;12627161;23;20019;-51
2022/01/08 19:03:00;;;;;;;0.80;0.80;;;;;;;19.74;42.33;96026.06;12627366;23;20069;-51
2022/01/08 19:08:19;;;;;;;1.10;1.00;;;;;;;19.72;42.28;96018.28;12606975;23;20093;-53
2022/01/08 19:13:39;;;;;;;1.00;0.90;;;;;;;19.72;42.40;96015.56;12606948;23;20018;-50
2022/01/08 19:18:59;;;;;;;1.13;0.90;;;;;;;19.72;42.24;96007.47;12606249;23;20034;-53
2022/01/08 19:24:18;;;;;;;0.90;0.90;;;;;;;19.72;42.09;95990.47;12608191;23;20015;-50
2022/01/08 19:29:44;;;;;;;0.90;0.90;;;;;;;19.72;42.16;95996.66;12607763;23;20019;-53
2022/01/08 19:35:05;;;;;;;0.95;0.88;;;;;;;19.72;42.21;95991.25;12607802;23;20015;-50
2022/01/08 19:40:27;;;;;;;0.80;0.80;;;;;;;19.73;42.13;95976.59;12607871;23;20379;-53
2022/01/08 19:45:47;;;;;;;0.80;0.80;;;;;;;19.73;42.16;95965.78;12607607;23;20048;-53
2022/01/08 19:51:07;;;;;;;0.85;0.85;;;;;;;19.76;42.13;95953.53;12629931;23;20021;-51
2022/01/08 19:56:26;;;;;;;1.00;0.90;;;;;;;19.78;42.03;95942.34;12611116;23;20089;-50
2022/01/08 20:01:47;;;;;;;0.80;0.80;;;;;;;19.78;42.01;95926.94;12609961;23;20089;-50
2022/01/08 20:07:07;;;;;;;0.82;0.80;;;;;;;19.81;42.12;95915.41;12610963;23;20146;-51
2022/01/08 20:12:27;;;;;;;0.80;0.80;;;;;;;19.83;41.93;95907.75;12609831;23;20029;-53
2022/01/08 20:17:46;;;;;;;0.68;0.68;;;;;;;19.87;42.16;95900.50;12610193;23;20022;-50
2022/01/08 20:23:06;;;;;;;0.80;0.80;;;;;;;19.89;42.13;95876.63;12629533;23;20025;-52
2022/01/08 20:28:25;;;;;;;0.70;0.70;;;;;;;19.91;41.98;95877.06;12630116;23;20026;-50
2022/01/08 20:33:45;;;;;;;0.70;0.70;;;;;;;19.94;42.09;95862.84;12610240;23;20342;-52
2022/01/08 20:39:05;;;;;;;0.80;0.80;;;;;;;19.97;42.10;95855.19;12629788;23;20018;-52
2022/01/08 20:44:24;;;;;;;1.20;0.85;;;;;;;19.99;41.99;95859.09;12608956;23;20026;-56
2022/01/08 20:49:44;;;;;;;0.77;0.77;;;;;;;20.03;41.95;95837.56;12608966;23;20022;-51
2022/01/08 20:55:03;;;;;;;0.70;0.70;;;;;;;20.06;41.92;95839.56;12609726;23;20045;-51
2022/01/08 21:00:25;;;;;;;1.05;0.80;;;;;;;20.09;41.97;95830.75;12628593;23;20064;-53
2022/01/08 21:05:45;;;;;;;0.70;0.70;;;;;;;20.12;41.84;95816.53;12588698;23;20038;-51
2022/01/08 21:11:05;;;;;;;0.90;0.90;;;;;;;20.15;41.75;95813.91;12610017;23;20097;-56
2022/01/08 21:16:24;;;;;;;1.67;1.20;;;;;;;20.19;41.75;95805.09;12610100;23;20505;-51
2022/01/08 21:21:46;;;;;;;1.20;0.95;;;;;;;20.21;41.70;95787.38;12610058;23;20014;-55
2022/01/08 21:27:05;;;;;;;1.10;0.90;;;;;;;20.25;41.61;95785.56;12629268;23;20018;-53
2022/01/08 21:32:24;;;;;;;1.20;1.05;;;;;;;20.28;41.65;95768.59;12610029;23;20093;-52
2022/01/08 21:37:53;;;;;;;1.38;1.27;;;;;;;20.31;41.56;95767.91;12609731;23;20026;-51
2022/01/08 21:43:13;;;;;;;;;;;;;;;20.34;41.54;95753.66;12629687;23;20022;-53
2022/01/08 21:48:33;;;;;;;1.20;1.10;;;;;;;20.37;41.50;95737.88;12630235;23;19941;-51
2022/01/08 21:53:52;;;;;;;1.02;1.00;;;;;;;20.41;41.49;95726.00;12609162;23;20080;-51
2022/01/08 21:59:13;;;;;;;1.30;1.05;;;;;;;20.43;41.39;95722.94;12609278;23;20097;-51
2022/01/08 22:04:32;;;;;;;1.25;1.15;;;;;;;20.46;41.27;95708.69;12609349;23;20483;-53
2022/01/08 22:09:51;;;;;;;1.38;1.23;;;;;;;20.49;41.24;95706.03;12608526;23;20022;-51
2022/01/08 22:15:11;;;;;;;1.10;1.00;;;;;;;20.51;41.20;95694.88;12608503;23;20621;-51
2022/01/08 22:20:31;;;;;;;1.15;1.05;;;;;;;20.53;41.11;95693.38;12626412;23;20649;-51
2022/01/08 22:25:51;;;;;;;1.40;1.05;;;;;;;20.55;41.08;95676.78;12605879;23;20019;-53
2022/01/08 22:31:10;;;;;;;1.10;1.00;;;;;;;20.55;41.08;95668.66;12625863;23;20037;-54
2022/01/08 22:36:30;;;;;;;1.40;1.02;;;;;;;20.54;41.15;95661.69;12606871;23;20355;-53
2022/01/08 22:41:51;;;;;;;1.35;1.20;;;;;;;20.56;41.11;95643.16;12606403;23;20015;-51
2022/01/08 22:47:13;;;;;;;1.20;1.10;;;;;;;20.55;41.08;95626.16;12625630;23;20098;-51
2022/01/08 22:52:33;;;;;;;1.35;0.90;;;;;;;20.55;41.16;95603.72;12605890;23;20483;-53
2022/01/08 22:57:52;;;;;;;1.48;1.33;;;;;;;20.57;41.02;95604.16;12606104;23;20455;-51
2022/01/08 23:03:12;;;;;;;1.23;1.13;;;;;;;20.55;41.10;95587.50;12602755;23;20599;-51
2022/01/08 23:08:34;;;;;;;1.23;1.13;;;;;;;20.55;41.09;95568.56;12601041;23;20058;-53
2022/01/08 23:13:53;;;;;;;1.38;1.27;;;;;;;20.55;40.96;95555.03;12623203;23;20348;-52
2022/01/08 23:19:13;;;;;;;1.23;1.13;;;;;;;20.54;41.05;95534.53;12557587;23;1140321;-51
2022/01/08 23:24:32;;;;;;;1.10;1.00;;;;;;;20.53;41.06;95517.50;12628030;23;20032;-51
2022/01/08 23:29:52;;;;;;;0.95;0.90;;;;;;;20.53;40.99;95517.50;12608276;23;20018;-53
2022/01/08 23:35:11;;;;;;;1.33;1.23;;;;;;;20.53;40.99;95503.22;12610025;23;20045;-51
2022/01/08 23:40:31;;;;;;;1.15;1.05;;;;;;;20.52;41.02;95485.41;12609936;23;20018;-51
2022/01/08 23:45:56;;;;;;;5.28;1.10;;;;;;;20.53;40.99;95462.63;12610072;23;20014;-51
2022/01/08 23:51:18;;;;;;;1.23;1.00;;;;;;;20.52;41.06;95458.34;12609993;23;20127;-51
2022/01/08 23:56:39;;;;;;;0.98;0.98;;;;;;;20.50;40.84;95450.63;12611106;23;20022;-51
